Forres, Argentina
Current Conditions -  °F | °C
As of 10:00 AM on Friday 24 Oct 2014 (Local Time) from SANT Reporting Station
Clear Clear  
Wind Chill: 28°   Ceiling: Unl
Heat Index: 29°   Visibility: 6mi
Dew Point: 17°   Wind: 3mph
Humidity: 51%   Direction: 180°S
Pressure: 30"   Gusts: NA
Location:  27.88°S, 63.97°W
Report Text: SANT 241300Z 18003KT CAVOK 28/17 Q1016
Loading
Personal Weather Stations






























Interactive Weather Map
Tropical Storm Tracking
New forecast layout! Learn more

10-Day Weather Forecast

Advertisements
Track Severe Weather on mobile